sensor_id;sensor_type;location;lat;lon;timestamp;pressure;altitude;pressure_sealevel;temperature;humidity
13080;BME280;6606;49.154;9.280;2022-11-09T00:01:32;99237.44;;;13.50;100.00
13080;BME280;6606;49.154;9.280;2022-11-09T00:04:00;99243.31;;;13.55;100.00
13080;BME280;6606;49.154;9.280;2022-11-09T00:06:28;99237.97;;;13.55;100.00
13080;BME280;6606;49.154;9.280;2022-11-09T00:08:56;99243.94;;;13.46;100.00
13080;BME280;6606;49.154;9.280;2022-11-09T00:11:23;99241.06;;;13.49;100.00
13080;BME280;6606;49.154;9.280;2022-11-09T00:13:50;99243.09;;;13.46;100.00
13080;BME280;6606;49.154;9.280;2022-11-09T00:16:18;99256.31;;;13.47;100.00
13080;BME280;6606;49.154;9.280;2022-11-09T00:18:46;99244.25;;;13.54;100.00
13080;BME280;6606;49.154;9.280;2022-11-09T00:21:14;99244.16;;;13.69;100.00
13080;BME280;6606;49.154;9.280;2022-11-09T00:23:42;99248.06;;;13.76;100.00
13080;BME280;6606;49.154;9.280;2022-11-09T00:26:12;99241.38;;;13.83;100.00
13080;BME280;6606;49.154;9.280;2022-11-09T00:28:39;99239.78;;;13.68;100.00
13080;BME280;6606;49.154;9.280;2022-11-09T00:31:09;99232.22;;;13.87;100.00
13080;BME280;6606;49.154;9.280;2022-11-09T00:33:37;99235.41;;;13.92;100.00
13080;BME280;6606;49.154;9.280;2022-11-09T00:36:04;99225.59;;;13.93;100.00
13080;BME280;6606;49.154;9.280;2022-11-09T00:38:32;99216.00;;;13.90;100.00
13080;BME280;6606;49.154;9.280;2022-11-09T00:41:00;99229.19;;;13.92;100.00
13080;BME280;6606;49.154;9.280;2022-11-09T00:43:31;99233.44;;;13.94;100.00
13080;BME280;6606;49.154;9.280;2022-11-09T00:45:58;99236.69;;;13.87;100.00
13080;BME280;6606;49.154;9.280;2022-11-09T00:48:25;99233.44;;;13.94;100.00
13080;BME280;6606;49.154;9.280;2022-11-09T00:50:53;99230.69;;;13.96;100.00
13080;BME280;6606;49.154;9.280;2022-11-09T00:53:22;99229.00;;;13.95;100.00
13080;BME280;6606;49.154;9.280;2022-11-09T00:55:53;99219.28;;;13.94;100.00
13080;BME280;6606;49.154;9.280;2022-11-09T00:58:21;99231.66;;;13.95;100.00
13080;BME280;6606;49.154;9.280;2022-11-09T01:00:49;99223.69;;;13.95;100.00
13080;BME280;6606;49.154;9.280;2022-11-09T01:03:16;99228.66;;;13.99;100.00
13080;BME280;6606;49.154;9.280;2022-11-09T01:05:42;99233.75;;;14.02;100.00
13080;BME280;6606;49.154;9.280;2022-11-09T01:08:09;99225.28;;;13.97;100.00
13080;BME280;6606;49.154;9.280;2022-11-09T01:10:39;99237.63;;;13.98;100.00
13080;BME280;6606;49.154;9.280;2022-11-09T01:13:06;99239.84;;;14.04;100.00
13080;BME280;6606;49.154;9.280;2022-11-09T01:15:32;99246.22;;;14.15;100.00
13080;BME280;6606;49.154;9.280;2022-11-09T01:18:03;99240.66;;;14.18;100.00
13080;BME280;6606;49.154;9.280;2022-11-09T01:20:29;99235.75;;;14.24;100.00
13080;BME280;6606;49.154;9.280;2022-11-09T01:22:58;99240.94;;;14.26;100.00
13080;BME280;6606;49.154;9.280;2022-11-09T01:25:28;99233.06;;;14.24;100.00
13080;BME280;6606;49.154;9.280;2022-11-09T01:27:55;99237.56;;;14.24;100.00
13080;BME280;6606;49.154;9.280;2022-11-09T01:30:24;99235.34;;;14.05;100.00
13080;BME280;6606;49.154;9.280;2022-11-09T01:32:52;99233.50;;;13.81;100.00
13080;BME280;6606;49.154;9.280;2022-11-09T01:35:20;99244.91;;;13.71;100.00
13080;BME280;6606;49.154;9.280;2022-11-09T01:37:47;99253.13;;;13.55;100.00
13080;BME280;6606;49.154;9.280;2022-11-09T01:40:14;99250.31;;;13.44;100.00
13080;BME280;6606;49.154;9.280;2022-11-09T01:42:40;99269.91;;;13.30;100.00
13080;BME280;6606;49.154;9.280;2022-11-09T01:45:23;99282.56;;;12.99;100.00
13080;BME280;6606;49.154;9.280;2022-11-09T01:47:55;99294.53;;;12.52;100.00
13080;BME280;6606;49.154;9.280;2022-11-09T01:50:29;99293.63;;;11.96;100.00
13080;BME280;6606;49.154;9.280;2022-11-09T01:52:58;99298.16;;;11.79;100.00
13080;BME280;6606;49.154;9.280;2022-11-09T01:55:27;99296.53;;;11.77;100.00
13080;BME280;6606;49.154;9.280;2022-11-09T01:57:57;99291.88;;;11.66;100.00
13080;BME280;6606;49.154;9.280;2022-11-09T02:00:26;99293.13;;;11.75;100.00
13080;BME280;6606;49.154;9.280;2022-11-09T02:02:57;99307.75;;;11.68;100.00
13080;BME280;6606;49.154;9.280;2022-11-09T02:05:30;99295.59;;;11.63;100.00
13080;BME280;6606;49.154;9.280;2022-11-09T02:08:00;99297.41;;;11.63;100.00
13080;BME280;6606;49.154;9.280;2022-11-09T02:10:32;99290.47;;;11.60;100.00
13080;BME280;6606;49.154;9.280;2022-11-09T02:13:01;99283.81;;;11.53;100.00
13080;BME280;6606;49.154;9.280;2022-11-09T02:15:35;99278.16;;;11.59;100.00
13080;BME280;6606;49.154;9.280;2022-11-09T02:18:02;99274.47;;;11.62;100.00
13080;BME280;6606;49.154;9.280;2022-11-09T02:20:43;99284.13;;;11.63;100.00
13080;BME280;6606;49.154;9.280;2022-11-09T02:23:10;99289.81;;;11.71;100.00
13080;BME280;6606;49.154;9.280;2022-11-09T02:25:37;99290.75;;;11.84;100.00
13080;BME280;6606;49.154;9.280;2022-11-09T02:28:04;99287.94;;;11.87;100.00
13080;BME280;6606;49.154;9.280;2022-11-09T02:30:32;99284.53;;;11.85;100.00
13080;BME280;6606;49.154;9.280;2022-11-09T02:33:00;99292.09;;;11.77;100.00
13080;BME280;6606;49.154;9.280;2022-11-09T02:35:27;99289.69;;;11.88;100.00
13080;BME280;6606;49.154;9.280;2022-11-09T02:37:55;99275.44;;;11.90;100.00
13080;BME280;6606;49.154;9.280;2022-11-09T02:40:27;99276.47;;;11.87;100.00
13080;BME280;6606;49.154;9.280;2022-11-09T02:42:56;99277.13;;;11.91;100.00
13080;BME280;6606;49.154;9.280;2022-11-09T02:45:23;99275.63;;;11.86;100.00
13080;BME280;6606;49.154;9.280;2022-11-09T02:47:49;99278.66;;;11.95;100.00
13080;BME280;6606;49.154;9.280;2022-11-09T02:50:16;99288.16;;;11.99;100.00
13080;BME280;6606;49.154;9.280;2022-11-09T02:52:43;99293.47;;;11.99;100.00
13080;BME280;6606;49.154;9.280;2022-11-09T02:55:11;99297.44;;;12.06;100.00
13080;BME280;6606;49.154;9.280;2022-11-09T02:57:38;99300.09;;;11.92;100.00
13080;BME280;6606;49.154;9.280;2022-11-09T03:00:06;99307.78;;;11.96;100.00
13080;BME280;6606;49.154;9.280;2022-11-09T03:02:34;99305.22;;;11.95;100.00
13080;BME280;6606;49.154;9.280;2022-11-09T03:05:01;99308.06;;;11.92;100.00
13080;BME280;6606;49.154;9.280;2022-11-09T03:07:28;99305.22;;;11.95;100.00
13080;BME280;6606;49.154;9.280;2022-11-09T03:09:57;99308.44;;;12.00;100.00
13080;BME280;6606;49.154;9.280;2022-11-09T03:12:26;99305.22;;;11.95;100.00
13080;BME280;6606;49.154;9.280;2022-11-09T03:15:05;99320.38;;;11.93;100.00
13080;BME280;6606;49.154;9.280;2022-11-09T03:17:33;99319.81;;;11.87;100.00
13080;BME280;6606;49.154;9.280;2022-11-09T03:19:59;99322.97;;;11.94;100.00
13080;BME280;6606;49.154;9.280;2022-11-09T03:22:27;99325.63;;;11.94;100.00
13080;BME280;6606;49.154;9.280;2022-11-09T03:24:54;99315.66;;;11.98;100.00
13080;BME280;6606;49.154;9.280;2022-11-09T03:27:22;99313.75;;;12.00;100.00
13080;BME280;6606;49.154;9.280;2022-11-09T03:29:50;99309.41;;;11.99;100.00
13080;BME280;6606;49.154;9.280;2022-11-09T03:32:18;99321.16;;;11.95;100.00
13080;BME280;6606;49.154;9.280;2022-11-09T03:34:45;99312.19;;;11.81;100.00
13080;BME280;6606;49.154;9.280;2022-11-09T03:37:13;99319.88;;;11.72;100.00
13080;BME280;6606;49.154;9.280;2022-11-09T03:39:41;99317.91;;;11.75;100.00
13080;BME280;6606;49.154;9.280;2022-11-09T03:42:08;99316.94;;;11.76;100.00
13080;BME280;6606;49.154;9.280;2022-11-09T03:44:37;99311.34;;;11.81;100.00
13080;BME280;6606;49.154;9.280;2022-11-09T03:47:05;99315.59;;;11.69;100.00
13080;BME280;6606;49.154;9.280;2022-11-09T03:49:32;99320.63;;;11.59;100.00
13080;BME280;6606;49.154;9.280;2022-11-09T03:51:58;99317.66;;;11.64;100.00
13080;BME280;6606;49.154;9.280;2022-11-09T03:54:25;99309.44;;;11.69;100.00
13080;BME280;6606;49.154;9.280;2022-11-09T03:56:52;99314.84;;;11.67;100.00
13080;BME280;6606;49.154;9.280;2022-11-09T03:59:18;99313.25;;;11.64;100.00
13080;BME280;6606;49.154;9.280;2022-11-09T04:01:45;99313.13;;;11.66;100.00
13080;BME280;6606;49.154;9.280;2022-11-09T04:04:13;99314.56;;;11.72;100.00
13080;BME280;6606;49.154;9.280;2022-11-09T04:06:40;99314.19;;;11.78;100.00
13080;BME280;6606;49.154;9.280;2022-11-09T04:09:08;99313.72;;;11.71;100.00
13080;BME280;6606;49.154;9.280;2022-11-09T04:11:35;99318.16;;;11.71;100.00
13080;BME280;6606;49.154;9.280;2022-11-09T04:14:01;99315.59;;;11.69;100.00
13080;BME280;6606;49.154;9.280;2022-11-09T04:16:28;99305.84;;;11.70;100.00
13080;BME280;6606;49.154;9.280;2022-11-09T04:18:55;99300.69;;;11.66;100.00
13080;BME280;6606;49.154;9.280;2022-11-09T04:21:23;99307.25;;;11.61;100.00
13080;BME280;6606;49.154;9.280;2022-11-09T04:23:50;99300.69;;;11.66;100.00
13080;BME280;6606;49.154;9.280;2022-11-09T04:26:17;99307.44;;;11.58;100.00
13080;BME280;6606;49.154;9.280;2022-11-09T04:28:44;99293.50;;;11.69;100.00
13080;BME280;6606;49.154;9.280;2022-11-09T04:31:10;99301.28;;;11.57;100.00
13080;BME280;6606;49.154;9.280;2022-11-09T04:33:37;99298.22;;;11.49;100.00
13080;BME280;6606;49.154;9.280;2022-11-09T04:36:04;99301.94;;;11.61;100.00
13080;BME280;6606;49.154;9.280;2022-11-09T04:38:32;99301.66;;;11.65;100.00
13080;BME280;6606;49.154;9.280;2022-11-09T04:41:01;99296.75;;;11.74;100.00
13080;BME280;6606;49.154;9.280;2022-11-09T04:43:28;99311.72;;;11.75;100.00
13080;BME280;6606;49.154;9.280;2022-11-09T04:45:58;99313.91;;;11.68;100.00
13080;BME280;6606;49.154;9.280;2022-11-09T04:48:25;99319.47;;;11.63;100.00
13080;BME280;6606;49.154;9.280;2022-11-09T04:50:52;99326.97;;;11.57;100.00
13080;BME280;6606;49.154;9.280;2022-11-09T04:53:18;99330.00;;;11.65;100.00
13080;BME280;6606;49.154;9.280;2022-11-09T04:55:46;99322.31;;;11.60;100.00
13080;BME280;6606;49.154;9.280;2022-11-09T04:58:13;99316.16;;;11.60;100.00
13080;BME280;6606;49.154;9.280;2022-11-09T05:00:40;99314.63;;;11.56;100.00
13080;BME280;6606;49.154;9.280;2022-11-09T05:03:07;99309.06;;;11.60;100.00
13080;BME280;6606;49.154;9.280;2022-11-09T05:05:35;99302.13;;;11.58;100.00
13080;BME280;6606;49.154;9.280;2022-11-09T05:08:03;99300.13;;;11.61;100.00
13080;BME280;6606;49.154;9.280;2022-11-09T05:10:31;99296.75;;;11.59;100.00
13080;BME280;6606;49.154;9.280;2022-11-09T05:13:00;99308.19;;;11.60;100.00
13080;BME280;6606;49.154;9.280;2022-11-09T05:15:27;99304.00;;;11.56;100.00
13080;BME280;6606;49.154;9.280;2022-11-09T05:17:54;99314.28;;;11.62;100.00
13080;BME280;6606;49.154;9.280;2022-11-09T05:20:20;99314.94;;;11.65;100.00
13080;BME280;6606;49.154;9.280;2022-11-09T05:22:47;99317.31;;;11.70;100.00
13080;BME280;6606;49.154;9.280;2022-11-09T05:25:31;99303.66;;;11.76;100.00
13080;BME280;6606;49.154;9.280;2022-11-09T05:28:00;99297.22;;;11.80;100.00
13080;BME280;6606;49.154;9.280;2022-11-09T05:30:26;99300.47;;;11.85;100.00
13080;BME280;6606;49.154;9.280;2022-11-09T05:32:53;99311.84;;;11.87;100.00
13080;BME280;6606;49.154;9.280;2022-11-09T05:35:20;99299.72;;;11.98;100.00
13080;BME280;6606;49.154;9.280;2022-11-09T05:37:47;99311.47;;;12.08;100.00
13080;BME280;6606;49.154;9.280;2022-11-09T05:40:15;99315.09;;;12.07;100.00
13080;BME280;6606;49.154;9.280;2022-11-09T05:42:42;99319.16;;;12.13;100.00
13080;BME280;6606;49.154;9.280;2022-11-09T05:45:12;99311.56;;;12.06;100.00
13080;BME280;6606;49.154;9.280;2022-11-09T05:47:40;99311.28;;;12.11;100.00
13080;BME280;6606;49.154;9.280;2022-11-09T05:50:09;99319.94;;;12.15;100.00
13080;BME280;6606;49.154;9.280;2022-11-09T05:52:36;99310.91;;;12.17;100.00
13080;BME280;6606;49.154;9.280;2022-11-09T05:55:04;99316.03;;;12.20;100.00
13080;BME280;6606;49.154;9.280;2022-11-09T05:57:31;99314.13;;;12.22;100.00
13080;BME280;6606;49.154;9.280;2022-11-09T05:59:57;99315.84;;;12.23;100.00
13080;BME280;6606;49.154;9.280;2022-11-09T06:02:29;99311.38;;;12.24;100.00
13080;BME280;6606;49.154;9.280;2022-11-09T06:04:56;99314.69;;;12.27;100.00
13080;BME280;6606;49.154;9.280;2022-11-09T06:07:23;99313.94;;;12.25;100.00
13080;BME280;6606;49.154;9.280;2022-11-09T06:09:50;99301.03;;;12.19;100.00
13080;BME280;6606;49.154;9.280;2022-11-09T06:12:17;99292.81;;;12.09;100.00
13080;BME280;6606;49.154;9.280;2022-11-09T06:14:43;99298.75;;;12.13;100.00
13080;BME280;6606;49.154;9.280;2022-11-09T06:17:10;99298.16;;;12.22;100.00
13080;BME280;6606;49.154;9.280;2022-11-09T06:19:38;99298.84;;;12.26;100.00
13080;BME280;6606;49.154;9.280;2022-11-09T06:22:05;99306.44;;;12.18;100.00
13080;BME280;6606;49.154;9.280;2022-11-09T06:24:32;99312.03;;;12.13;100.00
13080;BME280;6606;49.154;9.280;2022-11-09T06:26:58;99317.53;;;12.24;100.00
13080;BME280;6606;49.154;9.280;2022-11-09T06:29:25;99319.63;;;12.19;100.00
13080;BME280;6606;49.154;9.280;2022-11-09T06:31:52;99340.31;;;12.28;100.00
13080;BME280;6606;49.154;9.280;2022-11-09T06:34:18;99355.50;;;12.26;100.00
13080;BME280;6606;49.154;9.280;2022-11-09T06:36:46;99375.03;;;12.11;100.00
13080;BME280;6606;49.154;9.280;2022-11-09T06:39:13;99382.94;;;12.13;100.00
13080;BME280;6606;49.154;9.280;2022-11-09T06:41:40;99398.38;;;12.06;100.00
13080;BME280;6606;49.154;9.280;2022-11-09T06:44:07;99395.44;;;12.10;100.00
13080;BME280;6606;49.154;9.280;2022-11-09T06:46:33;99397.81;;;12.15;100.00
13080;BME280;6606;49.154;9.280;2022-11-09T06:49:00;99397.63;;;12.18;100.00
13080;BME280;6606;49.154;9.280;2022-11-09T06:51:27;99402.94;;;12.18;100.00
13080;BME280;6606;49.154;9.280;2022-11-09T06:53:55;99395.94;;;12.17;100.00
13080;BME280;6606;49.154;9.280;2022-11-09T06:56:21;99414.91;;;12.25;100.00
13080;BME280;6606;49.154;9.280;2022-11-09T06:58:48;99404.44;;;12.22;100.00
13080;BME280;6606;49.154;9.280;2022-11-09T07:01:16;99403.41;;;12.25;100.00
13080;BME280;6606;49.154;9.280;2022-11-09T07:03:43;99423.81;;;12.24;100.00
13080;BME280;6606;49.154;9.280;2022-11-09T07:06:11;99412.72;;;12.18;100.00
13080;BME280;6606;49.154;9.280;2022-11-09T07:08:39;99411.75;;;12.33;100.00
13080;BME280;6606;49.154;9.280;2022-11-09T07:11:09;99407.03;;;12.38;100.00
13080;BME280;6606;49.154;9.280;2022-11-09T07:13:36;99396.38;;;12.38;100.00
13080;BME280;6606;49.154;9.280;2022-11-09T07:16:04;99394.78;;;12.36;100.00
13080;BME280;6606;49.154;9.280;2022-11-09T07:18:31;99389.66;;;12.32;100.00
13080;BME280;6606;49.154;9.280;2022-11-09T07:20:59;99395.72;;;12.35;100.00
13080;BME280;6606;49.154;9.280;2022-11-09T07:23:25;99403.31;;;12.41;100.00
13080;BME280;6606;49.154;9.280;2022-11-09T07:25:52;99400.09;;;12.50;100.00
13080;BME280;6606;49.154;9.280;2022-11-09T07:28:21;99401.59;;;12.54;100.00
13080;BME280;6606;49.154;9.280;2022-11-09T07:30:47;99405.78;;;12.58;100.00
13080;BME280;6606;49.154;9.280;2022-11-09T07:33:18;99395.16;;;12.58;100.00
13080;BME280;6606;49.154;9.280;2022-11-09T07:35:47;99389.06;;;12.56;100.00
13080;BME280;6606;49.154;9.280;2022-11-09T07:38:14;99386.22;;;12.59;100.00
13080;BME280;6606;49.154;9.280;2022-11-09T07:40:41;99387.53;;;12.66;100.00
13080;BME280;6606;49.154;9.280;2022-11-09T07:43:10;99387.47;;;12.68;100.00
13080;BME280;6606;49.154;9.280;2022-11-09T07:45:39;99390.38;;;12.77;100.00
13080;BME280;6606;49.154;9.280;2022-11-09T07:48:07;99394.19;;;12.73;100.00
13080;BME280;6606;49.154;9.280;2022-11-09T07:50:36;99400.63;;;12.84;100.00
13080;BME280;6606;49.154;9.280;2022-11-09T07:53:03;99402.59;;;12.94;100.00
13080;BME280;6606;49.154;9.280;2022-11-09T07:55:32;99405.50;;;13.04;100.00
13080;BME280;6606;49.154;9.280;2022-11-09T07:58:01;99408.72;;;13.09;100.00
13080;BME280;6606;49.154;9.280;2022-11-09T08:00:29;99405.84;;;13.12;100.00
13080;BME280;6606;49.154;9.280;2022-11-09T08:02:57;99402.84;;;13.04;100.00
13080;BME280;6606;49.154;9.280;2022-11-09T08:05:24;99405.28;;;13.22;100.00
13080;BME280;6606;49.154;9.280;2022-11-09T08:07:54;99395.06;;;13.01;100.00
13080;BME280;6606;49.154;9.280;2022-11-09T08:10:22;99399.81;;;13.10;100.00
13080;BME280;6606;49.154;9.280;2022-11-09T08:12:53;99393.81;;;13.07;100.00
13080;BME280;6606;49.154;9.280;2022-11-09T08:15:20;99404.34;;;13.08;100.00
13080;BME280;6606;49.154;9.280;2022-11-09T08:17:47;99401.63;;;13.23;100.00
13080;BME280;6606;49.154;9.280;2022-11-09T08:20:15;99396.53;;;13.34;100.00
13080;BME280;6606;49.154;9.280;2022-11-09T08:22:42;99398.13;;;13.36;100.00
13080;BME280;6606;49.154;9.280;2022-11-09T08:25:10;99389.94;;;13.39;100.00
13080;BME280;6606;49.154;9.280;2022-11-09T08:27:38;99393.84;;;13.34;100.00
13080;BME280;6606;49.154;9.280;2022-11-09T08:30:07;99380.00;;;13.29;100.00
13080;BME280;6606;49.154;9.280;2022-11-09T08:32:34;99375.16;;;13.21;100.00
13080;BME280;6606;49.154;9.280;2022-11-09T08:35:01;99373.53;;;13.18;100.00
13080;BME280;6606;49.154;9.280;2022-11-09T08:37:29;99372.22;;;13.11;100.00
13080;BME280;6606;49.154;9.280;2022-11-09T08:39:56;99385.66;;;13.23;100.00
13080;BME280;6606;49.154;9.280;2022-11-09T08:42:23;99380.63;;;13.32;100.00
13080;BME280;6606;49.154;9.280;2022-11-09T08:44:49;99372.34;;;13.37;100.00
13080;BME280;6606;49.154;9.280;2022-11-09T08:47:16;99370.63;;;13.36;100.00
13080;BME280;6606;49.154;9.280;2022-11-09T08:49:43;99371.72;;;13.46;100.00
13080;BME280;6606;49.154;9.280;2022-11-09T08:52:11;99375.44;;;13.44;100.00
13080;BME280;6606;49.154;9.280;2022-11-09T08:54:39;99371.72;;;13.46;100.00
13080;BME280;6606;49.154;9.280;2022-11-09T08:57:06;99382.16;;;13.36;100.00
13080;BME280;6606;49.154;9.280;2022-11-09T08:59:33;99382.34;;;13.33;100.00
13080;BME280;6606;49.154;9.280;2022-11-09T09:01:59;99388.72;;;13.31;100.00
13080;BME280;6606;49.154;9.280;2022-11-09T09:04:26;99385.13;;;13.32;100.00
13080;BME280;6606;49.154;9.280;2022-11-09T09:06:54;99376.97;;;13.20;100.00
13080;BME280;6606;49.154;9.280;2022-11-09T09:09:21;99386.69;;;13.07;100.00
13080;BME280;6606;49.154;9.280;2022-11-09T09:11:49;99385.47;;;13.26;100.00
13080;BME280;6606;49.154;9.280;2022-11-09T09:14:15;99394.03;;;13.31;100.00
13080;BME280;6606;49.154;9.280;2022-11-09T09:16:42;99400.06;;;13.47;100.00
13080;BME280;6606;49.154;9.280;2022-11-09T09:19:09;99413.94;;;13.52;100.00
13080;BME280;6606;49.154;9.280;2022-11-09T09:21:36;99422.25;;;13.60;100.00
13080;BME280;6606;49.154;9.280;2022-11-09T09:24:03;99417.38;;;13.67;100.00
13080;BME280;6606;49.154;9.280;2022-11-09T09:26:30;99422.69;;;13.67;100.00
13080;BME280;6606;49.154;9.280;2022-11-09T09:28:58;99418.03;;;13.71;100.00
13080;BME280;6606;49.154;9.280;2022-11-09T09:31:25;99418.63;;;13.61;100.00
13080;BME280;6606;49.154;9.280;2022-11-09T09:33:52;99421.00;;;13.66;100.00
13080;BME280;6606;49.154;9.280;2022-11-09T09:36:20;99419.41;;;13.89;100.00
13080;BME280;6606;49.154;9.280;2022-11-09T09:38:49;99416.13;;;13.98;100.00
13080;BME280;6606;49.154;9.280;2022-11-09T09:41:20;99419.97;;;14.07;100.00
13080;BME280;6606;49.154;9.280;2022-11-09T09:43:52;99424.03;;;14.13;100.00
13080;BME280;6606;49.154;9.280;2022-11-09T09:46:27;99419.16;;;14.32;100.00
13080;BME280;6606;49.154;9.280;2022-11-09T09:49:00;99423.63;;;14.32;100.00
13080;BME280;6606;49.154;9.280;2022-11-09T09:51:33;99427.03;;;14.72;100.00
13080;BME280;6606;49.154;9.280;2022-11-09T09:54:05;99434.84;;;14.99;100.00
13080;BME280;6606;49.154;9.280;2022-11-09T09:56:37;99434.88;;;14.86;100.00
13080;BME280;6606;49.154;9.280;2022-11-09T09:59:09;99434.41;;;15.05;100.00
13080;BME280;6606;49.154;9.280;2022-11-09T10:01:42;99444.75;;;15.10;100.00
13080;BME280;6606;49.154;9.280;2022-11-09T10:04:15;99441.44;;;15.19;100.00
13080;BME280;6606;49.154;9.280;2022-11-09T10:06:53;99441.66;;;15.40;100.00
13080;BME280;6606;49.154;9.280;2022-11-09T10:09:32;99441.13;;;15.72;100.00
13080;BME280;6606;49.154;9.280;2022-11-09T10:12:04;99435.34;;;15.65;100.00
13080;BME280;6606;49.154;9.280;2022-11-09T10:14:44;99434.97;;;15.82;100.00
13080;BME280;6606;49.154;9.280;2022-11-09T10:17:22;99433.25;;;15.93;100.00
13080;BME280;6606;49.154;9.280;2022-11-09T10:20:00;99431.41;;;15.58;100.00
13080;BME280;6606;49.154;9.280;2022-11-09T10:22:34;99427.75;;;15.72;100.00
13080;BME280;6606;49.154;9.280;2022-11-09T10:25:12;99419.69;;;15.96;100.00
13080;BME280;6606;49.154;9.280;2022-11-09T10:27:42;99421.63;;;15.94;100.00
13080;BME280;6606;49.154;9.280;2022-11-09T10:30:14;99426.88;;;16.07;100.00
13080;BME280;6606;49.154;9.280;2022-11-09T10:32:45;99432.00;;;16.21;100.00
13080;BME280;6606;49.154;9.280;2022-11-09T10:35:16;99426.91;;;16.40;100.00
13080;BME280;6606;49.154;9.280;2022-11-09T10:37:45;99417.31;;;16.71;100.00
13080;BME280;6606;49.154;9.280;2022-11-09T10:40:15;99410.66;;;16.88;100.00
13080;BME280;6606;49.154;9.280;2022-11-09T10:43:08;99413.69;;;16.95;100.00
13080;BME280;6606;49.154;9.280;2022-11-09T10:45:59;99411.16;;;16.94;100.00
13080;BME280;6606;49.154;9.280;2022-11-09T10:48:49;99414.88;;;17.13;100.00
13080;BME280;6606;49.154;9.280;2022-11-09T10:51:39;99407.34;;;16.85;100.00
13080;BME280;6606;49.154;9.280;2022-11-09T10:54:26;99418.44;;;16.91;100.00
13080;BME280;6606;49.154;9.280;2022-11-09T10:57:16;99406.63;;;16.49;100.00
13080;BME280;6606;49.154;9.280;2022-11-09T11:00:03;99417.22;;;16.62;100.00
13080;BME280;6606;49.154;9.280;2022-11-09T11:02:49;99415.13;;;16.77;100.00
13080;BME280;6606;49.154;9.280;2022-11-09T11:05:37;99404.41;;;16.77;100.00
13080;BME280;6606;49.154;9.280;2022-11-09T11:08:34;99407.81;;;17.01;100.00
13080;BME280;6606;49.154;9.280;2022-11-09T11:11:22;99395.84;;;17.17;100.00
13080;BME280;6606;49.154;9.280;2022-11-09T11:14:22;99397.28;;;16.88;100.00
13080;BME280;6606;49.154;9.280;2022-11-09T11:17:20;99395.59;;;17.31;100.00
13080;BME280;6606;49.154;9.280;2022-11-09T11:20:25;99390.25;;;17.20;100.00
13080;BME280;6606;49.154;9.280;2022-11-09T11:23:14;99384.00;;;16.87;100.00
13080;BME280;6606;49.154;9.280;2022-11-09T11:26:33;99384.72;;;17.00;100.00
13080;BME280;6606;49.154;9.280;2022-11-09T11:29:37;99388.72;;;17.06;100.00
13080;BME280;6606;49.154;9.280;2022-11-09T11:32:25;99374.16;;;17.20;100.00
13080;BME280;6606;49.154;9.280;2022-11-09T11:35:13;99385.34;;;17.36;100.00
13080;BME280;6606;49.154;9.280;2022-11-09T11:38:08;99381.56;;;17.27;100.00
13080;BME280;6606;49.154;9.280;2022-11-09T11:41:11;99383.97;;;16.98;100.00
13080;BME280;6606;49.154;9.280;2022-11-09T11:44:09;99382.13;;;17.10;100.00
13080;BME280;6606;49.154;9.280;2022-11-09T11:47:01;99380.47;;;17.30;100.00
13080;BME280;6606;49.154;9.280;2022-11-09T11:50:02;99377.72;;;17.20;100.00
13080;BME280;6606;49.154;9.280;2022-11-09T11:52:58;99375.97;;;16.87;100.00
13080;BME280;6606;49.154;9.280;2022-11-09T11:55:56;99369.16;;;16.83;100.00
13080;BME280;6606;49.154;9.280;2022-11-09T11:59:25;99373.19;;;16.88;100.00
13080;BME280;6606;49.154;9.280;2022-11-09T12:02:30;99367.94;;;16.87;100.00
13080;BME280;6606;49.154;9.280;2022-11-09T12:05:30;99371.78;;;17.05;100.00
13080;BME280;6606;49.154;9.280;2022-11-09T12:08:27;99365.63;;;16.94;100.00
13080;BME280;6606;49.154;9.280;2022-11-09T12:11:21;99362.03;;;17.16;100.00
13080;BME280;6606;49.154;9.280;2022-11-09T12:14:18;99368.06;;;17.29;100.00
13080;BME280;6606;49.154;9.280;2022-11-09T12:17:14;99370.78;;;17.18;100.00
13080;BME280;6606;49.154;9.280;2022-11-09T12:20:14;99366.19;;;17.08;100.00
13080;BME280;6606;49.154;9.280;2022-11-09T12:23:21;99367.28;;;17.38;100.00
13080;BME280;6606;49.154;9.280;2022-11-09T12:26:16;99366.16;;;17.52;100.00
13080;BME280;6606;49.154;9.280;2022-11-09T12:29:11;99358.78;;;17.65;100.00
13080;BME280;6606;49.154;9.280;2022-11-09T12:32:08;99362.22;;;17.77;100.00
13080;BME280;6606;49.154;9.280;2022-11-09T12:35:08;99364.19;;;17.86;100.00
13080;BME280;6606;49.154;9.280;2022-11-09T12:37:59;99368.16;;;17.92;100.00
13080;BME280;6606;49.154;9.280;2022-11-09T12:40:49;99369.28;;;17.89;100.00
13080;BME280;6606;49.154;9.280;2022-11-09T12:43:44;99365.72;;;17.68;100.00
13080;BME280;6606;49.154;9.280;2022-11-09T12:46:34;99359.81;;;17.53;100.00
13080;BME280;6606;49.154;9.280;2022-11-09T12:49:33;99359.03;;;17.41;100.00
13080;BME280;6606;49.154;9.280;2022-11-09T12:52:22;99359.97;;;17.40;100.00
13080;BME280;6606;49.154;9.280;2022-11-09T12:55:12;99357.63;;;17.26;100.00
13080;BME280;6606;49.154;9.280;2022-11-09T12:57:57;99360.91;;;16.86;100.00
13080;BME280;6606;49.154;9.280;2022-11-09T13:00:48;99358.69;;;16.68;100.00
13080;BME280;6606;49.154;9.280;2022-11-09T13:03:36;99360.16;;;16.50;100.00
13080;BME280;6606;49.154;9.280;2022-11-09T13:06:24;99358.47;;;16.49;100.00
13080;BME280;6606;49.154;9.280;2022-11-09T13:09:21;99362.59;;;16.42;100.00
13080;BME280;6606;49.154;9.280;2022-11-09T13:12:18;99366.72;;;16.35;100.00
13080;BME280;6606;49.154;9.280;2022-11-09T13:15:21;99374.53;;;16.49;100.00
13080;BME280;6606;49.154;9.280;2022-11-09T13:18:22;99373.16;;;16.21;100.00
13080;BME280;6606;49.154;9.280;2022-11-09T13:21:37;99366.13;;;16.31;100.00
13080;BME280;6606;49.154;9.280;2022-11-09T13:24:54;99370.84;;;16.16;100.00
13080;BME280;6606;49.154;9.280;2022-11-09T13:27:44;99372.56;;;16.17;100.00
13080;BME280;6606;49.154;9.280;2022-11-09T13:30:47;99382.19;;;16.20;100.00
13080;BME280;6606;49.154;9.280;2022-11-09T13:33:33;99375.00;;;16.09;100.00